Terminal Aerodrome Forecast
Issued by NWS Grand Forks, ND

Home | Current Version | Previous Version | Text Only | Print | Product List | Glossary On
Versions: 1 2 3 4 5 6 7 8 9 10 11 12 13 14 15
952
FTUS43 KFGF 231139
TAFFAR
TAF
KFAR 231139Z 2312/2412 13008KT P6SM BKN200
     FM231900 14012KT P6SM VCTS BKN070CB BKN200
     FM232100 15012KT P6SM SCT070 BKN200=

USA.gov is the U.S. government's official web portal to all federal, state and local government web resources and services.